Flight Track Log - Related Links

Times and Time Zones

All times are in EDT time to prevent confusion due to time zone crossing. See the ACA91 flight status page for this flight to view local times or setup timezone preferences in your user account.

Time Position Orientation Groundspeed Altitude Reporting Facility
EDT Latitude Longitude Course Direction KTS MPH feet Rate Location/Type
Sat 12:34:00 AM -23.3269 -46.5213 336° Northwest  Level Estimated
Sat 12:35:00 AM -23.2200 -46.5739 336° Northwest  Level Estimated
Sat 12:36:00 AM -23.1130 -46.6264 336° Northwest  Level Estimated
Sat 12:37:00 AM -23.0061 -46.6788 336° Northwest  Level Estimated
Sat 12:38:00 AM -22.8991 -46.7312 336° Northwest  Level Estimated
Sat 12:39:00 AM -22.7921 -46.7834 336° Northwest  Level Estimated
Sat 12:40:00 AM -22.6850 -46.8356 336° Northwest  Level Estimated
Sat 12:41:00 AM -22.5780 -46.8877 336° Northwest  Level Estimated
Sat 12:42:00 AM -22.4709 -46.9397 336° Northwest  Level Estimated
Sat 12:43:00 AM -22.3639 -46.9916 336° Northwest  Level Estimated
Sat 12:44:00 AM -22.2568 -47.0435 336° Northwest  Level Estimated
Sat 12:45:00 AM -22.1497 -47.0953 336° Northwest  Level Estimated
Sat 12:46:00 AM -22.0425 -47.1470 336° Northwest  Level Estimated
Sat 12:47:00 AM -21.9354 -47.1986 336° Northwest  Level Estimated
Sat 12:48:00 AM -21.8283 -47.2501 336° Northwest  Level Estimated
Sat 12:49:00 AM -21.7211 -47.3016 336° Northwest  Level Estimated
Sat 12:50:00 AM -21.6139 -47.3530 336° Northwest  Level Estimated
Sat 12:51:00 AM -21.5067 -47.4043 336° Northwest  Level Estimated
Sat 12:52:00 AM -21.3995 -47.4555 336° Northwest  Level Estimated
Sat 12:53:00 AM -21.2922 -47.5067 336° Northwest  Level Estimated
Sat 12:54:00 AM -21.1850 -47.5578 336° Northwest  Level Estimated
Sat 12:55:00 AM -21.0777 -47.6088 336° Northwest  Level Estimated
Sat 12:56:00 AM -20.9704 -47.6597 336° Northwest  Level Estimated
Sat 12:57:00 AM -20.8631 -47.7106 336° Northwest  Level Estimated
Sat 12:58:00 AM -20.7558 -47.7614 336° Northwest  Level Estimated
Sat 12:59:00 AM -20.6485 -47.8121 336° Northwest  Level Estimated
Sat 01:00:00 AM -20.5412 -47.8628 336° Northwest  Level Estimated
Sat 01:00:09 AM 15.3000 -64.3500 336° Northwest 470 541 34,000  Level San Juan Center
Sat 01:01:00 AM -20.4338 -47.9133 336° Northwest  Level Estimated
Sat 01:01:09 AM 15.4167 -64.4167 331° Northwest 470 541 34,000  Level San Juan Center
Sat 01:02:00 AM -20.3264 -47.9638 336° Northwest  Level Estimated
Sat 01:02:09 AM 15.5333 -64.4833 331° Northwest 470 541 34,000  Level San Juan Center
Sat 01:03:00 AM -20.2190 -48.0143 336° Northwest  Level Estimated
Sat 01:03:09 AM 15.6333 -64.5500 327° Northwest 460 529 34,000  Level San Juan Center
Sat 01:04:00 AM -20.1117 -48.0646 336° Northwest  Level Estimated
Sat 01:04:09 AM 15.7500 -64.6333 325° Northwest 460 529 34,000  Level San Juan Center
Sat 01:05:00 AM -20.0042 -48.1149 336° Northwest  Level Estimated
Sat 01:05:09 AM 15.8500 -64.7000 327° Northwest 460 529 34,000  Level San Juan Center
Sat 01:06:10 AM 15.9667 -64.7833 326° Northwest 470 541 34,000  Level San Juan Center
Sat 01:07:10 AM 16.0833 -64.8667 326° Northwest 470 541 34,000 300 Level San Juan Center
Sat 01:08:10 AM 16.2000 -64.9333 331° Northwest 460 529 34,600 700 Climbing San Juan Center
Sat 01:09:10 AM 16.3000 -65.0000 327° Northwest 460 529 35,400 700 Climbing San Juan Center
Sat 01:10:10 AM 16.4000 -65.0833 321° Northwest 470 541 36,000 300 Climbing San Juan Center
Sat 01:11:10 AM 16.5167 -65.1500 331° Northwest 460 529 36,000  Level San Juan Center
Sat 01:12:11 AM 16.6167 -65.2000 334° Northwest 440 506 36,000  Level San Juan Center
Sat 01:13:10 AM 16.7167 -65.2833 321° Northwest 450 518 36,000  Level San Juan Center
Sat 01:14:10 AM 16.8167 -65.3500 327° Northwest 440 506 36,000  Level San Juan Center
Sat 01:15:11 AM 16.9167 -65.4333 321° Northwest 460 529 36,000  Level San Juan Center
Sat 01:16:11 AM 17.0333 -65.4833 338° Northwest 450 518 36,000  Level San Juan Center
Sat 01:17:11 AM 17.1333 -65.5500 328° Northwest 450 518 36,000  Level San Juan Center
Sat 01:18:11 AM 17.2500 -65.6333 326° Northwest 450 518 36,000  Level San Juan Center
Sat 01:19:11 AM 17.3667 -65.7167 326° Northwest 480 552 36,000  Level San Juan Center
Sat 01:24:33 AM 17.9373 -66.1026 327° Northwest 446 513 36,000  Level FlightAware ADS-B (TNCM / SXM)
Sat 01:24:54 AM 17.9582 -66.1167 327° Northwest 447 514 36,000  Level FlightAware ADS-B (TNCM / SXM)
Sat 01:29:04 AM 18.4100 -66.4257 327° Northwest 447 514 36,000  Level FlightAware ADS-B (TNCM / SXM)
Sat 01:30:13 AM 18.5167 -66.5000 327° Northwest 450 518 36,000  Level San Juan Center
Sat 01:31:13 AM 18.6333 -66.5667 332° Northwest 440 506 36,000  Level San Juan Center
Sat 01:32:13 AM 18.7333 -66.6333 328° Northwest 450 518 36,000  Level San Juan Center
Sat 01:33:13 AM 18.8333 -66.7167 322° Northwest 450 518 36,000  Level San Juan Center
Sat 01:34:13 AM 18.9500 -66.7833 332° Northwest 460 529 36,000  Level San Juan Center
Sat 01:35:14 AM 19.0500 -66.8667 322° Northwest 450 518 36,000  Level San Juan Center
Sat 01:36:14 AM 19.1500 -66.9333 328° Northwest 450 518 36,000  Level San Juan Center
Sat 01:37:14 AM 19.2500 -67.0000 328° Northwest 440 506 36,000  Level San Juan Center
Sat 01:38:14 AM 19.3500 -67.0833 322° Northwest 450 518 36,000  Level San Juan Center
Sat 01:39:14 AM 19.4667 -67.1500 332° Northwest 450 518 36,000  Level San Juan Center
Sat 01:40:14 AM 19.5667 -67.2167 328° Northwest 440 506 36,000  Level San Juan Center
Sat 01:41:15 AM 19.6667 -67.3000 322° Northwest 440 506 36,000  Level San Juan Center
Sat 01:42:15 AM 19.7667 -67.3667 328° Northwest 440 506 36,000  Level San Juan Center
Sat 01:43:15 AM 19.8667 -67.4333 328° Northwest 440 506 36,000  Level San Juan Center
Sat 01:44:15 AM 19.9833 -67.5167 326° Northwest 450 518 36,000  Level San Juan Center
Sat 01:45:15 AM 20.0833 -67.5833 328° Northwest 440 506 36,000  Level San Juan Center
Sat 01:46:15 AM 20.1833 -67.6500 328° Northwest 440 506 36,000  Level San Juan Center
Sat 01:47:15 AM 20.2833 -67.7333 322° Northwest 440 506 36,000  Level San Juan Center
Sat 01:48:07 AM 20.3878 -67.8086 326° Northwest 444 511 36,000  Level Miami Center
Sat 01:49:07 AM 20.4897 -67.8808 326° Northwest 444 511 36,000  Level Miami Center
Sat 01:50:07 AM 20.5911 -67.9522 327° Northwest 442 509 36,000  Level Miami Center
Sat 01:51:08 AM 20.6911 -68.0250 326° Northwest 441 507 36,000  Level Miami Center
Sat 01:52:08 AM 20.7931 -68.0964 327° Northwest 440 506 36,000  Level Miami Center
Sat 01:53:08 AM 20.8972 -68.1656 328° Northwest 440 506 36,000  Level Miami Center
Sat 01:54:09 AM 21.0011 -68.2347 328° Northwest 440 506 36,000  Level Miami Center
Sat 01:55:09 AM 21.1069 -68.3042 329° Northwest 440 506 36,000  Level Miami Center
Sat 01:56:10 AM 21.2097 -68.3747 327° Northwest 440 506 36,000  Level Miami Center
Sat 01:57:10 AM 21.3164 -68.4464 328° Northwest 441 507 36,000  Level Miami Center
Sat 01:58:11 AM 21.4250 -68.5164 329° Northwest 446 513 36,000  Level Miami Center
Sat 01:59:11 AM 21.5306 -68.5869 328° Northwest 446 513 36,000  Level Miami Center
Sat 02:00:12 AM 21.6364 -68.6583 328° Northwest 446 513 36,000  Level Miami Center
Sat 02:01:13 AM 21.7400 -68.7303 327° Northwest 446 513 36,000  Level Miami Center
Sat 02:02:13 AM 21.8461 -68.8017 328° Northwest 446 513 36,000  Level Miami Center
Sat 02:03:13 AM 21.9511 -68.8733 328° Northwest 446 513 36,000  Level Miami Center
Sat 02:04:13 AM 22.0575 -68.9447 328° Northwest 447 514 36,000  Level Miami Center
Sat 02:05:12 AM 22.1622 -69.0161 328° Northwest 447 514 36,000  Level Miami Center
Sat 02:06:12 AM 22.2656 -69.0878 327° Northwest 447 514 36,000  Level Miami Center
Sat 02:07:12 AM 22.3706 -69.1586 328° Northwest 447 514 36,000  Level Miami Center
Sat 02:08:12 AM 22.4756 -69.2303 328° Northwest 447 514 36,000  Level Miami Center
Sat 02:09:15 AM 22.5797 -69.3017 328° Northwest 446 513 36,000  Level Miami Center
Sat 02:10:15 AM 22.6844 -69.3733 328° Northwest 446 513 36,000  Level Miami Center
Sat 02:11:13 AM 22.7889 -69.4458 327° Northwest 446 513 36,000  Level Miami Center
Sat 02:12:14 AM 22.8931 -69.5186 327° Northwest 446 513 36,000  Level Miami Center
Sat 02:13:15 AM 22.9992 -69.5917 328° Northwest 447 514 36,000  Level Miami Center
Sat 02:14:14 AM 23.1056 -69.6661 327° Northwest 447 514 36,000  Level Miami Center
Sat 02:15:16 AM 23.2131 -69.7408 327° Northwest 448 516 36,000  Level Miami Center
Sat 02:16:15 AM 23.3194 -69.8144 328° Northwest 451 519 36,000  Level Miami Center
Sat 02:17:16 AM 23.4256 -69.8889 327° Northwest 451 519 36,000  Level Miami Center
Sat 02:18:16 AM 23.5328 -69.9644 327° Northwest 452 520 36,000  Level Miami Center
Sat 02:19:17 AM 23.6392 -70.0392 327° Northwest 452 520 36,000  Level Miami Center
Sat 02:20:17 AM 23.7458 -70.1136 327° Northwest 452 520 36,000  Level Miami Center
Sat 02:21:16 AM 23.8528 -70.1886 327° Northwest 452 520 36,000  Level Miami Center
Sat 02:22:16 AM 23.9592 -70.2631 327° Northwest 453 521 36,000  Level Miami Center
Sat 02:23:16 AM 24.0669 -70.3417 326° Northwest 454 522 36,000  Level Miami Center
Sat 02:24:18 AM 24.1750 -70.4203 326° Northwest 457 526 36,000  Level Miami Center
Sat 02:25:17 AM 24.2825 -70.4953 328° Northwest 458 527 36,000  Level Miami Center
Sat 02:26:17 AM 24.3886 -70.5706 327° Northwest 458 527 36,000  Level Miami Center
Sat 02:27:17 AM 24.4950 -70.6475 327° Northwest 458 527 36,000  Level Miami Center
Sat 02:28:17 AM 24.6033 -70.7244 327° Northwest 459 528 36,000  Level Miami Center
Sat 02:29:18 AM 24.7111 -70.8028 327° Northwest 459 528 36,000  Level Miami Center
Sat 02:30:18 AM 24.8392 -70.8942 327° Northwest 459 528 36,000  Level Miami Center
Sat 02:30:44 AM 24.8833 -70.9333 327° Northwest 470 541 36,000  Level New York Oceanic (ODAPS)
Sat 02:31:18 AM 24.9478 -70.9747 327° Northwest 460 529 36,000  Level Miami Center
Sat 02:31:53 AM 25.0000 -71.0167 347° North 467 537 36,000  Level New York Oceanic (ODAPS)
Sat 02:33:19 AM 25.1972 -71.0392 347° North 465 535 36,000  Level Miami Center
Sat 02:34:19 AM 25.3253 -71.0731 347° North 465 535 36,000  Level Miami Center
Sat 02:51:13 AM 27.4000 -71.6667 347° North 453 521 36,000  Level New York Oceanic (ODAPS)
Sat 02:59:07 AM 28.3167 -71.9167 346° North 450 518 36,000  Level New York Oceanic (ODAPS)
Sat 03:11:22 AM 29.8500 -72.3500 345° North 438 504 36,000  Level New York Oceanic (ODAPS)
Sat 03:14:22 AM 30.1667 -72.4500 346° North 440 506 36,000  Level New York Oceanic (ODAPS)
Sat 03:15:00 AM 30.2904 -72.4871 345° North 450 518 36,000  Level FlightAware Transoceanic
Sat 03:16:00 AM 30.4141 -72.5242 345° North 450 518 36,000  Level FlightAware Transoceanic
Sat 03:17:00 AM 30.5378 -72.5614 345° North 438 504 36,000  Level FlightAware Transoceanic
Sat 03:17:47 AM 30.5667 -72.5667 345° North 442 509 36,000  Level New York Oceanic (ODAPS)
Sat 03:18:00 AM 30.6615 -72.5988 345° North 438 504 36,000  Level FlightAware Transoceanic
Sat 03:31:45 AM 32.2833 -73.1000 345° North 431 496 36,000  Level New York Oceanic (ODAPS)
Sat 03:32:35 AM 32.3167 -73.1000 345° North 450 518 36,000  Level New York Oceanic (ODAPS)
Sat 03:36:17 AM 32.8567 -73.2556 345° North 453 521 36,000 -21 Level New York Center
Sat 03:37:18 AM 32.9706 -73.2939 344° North 442 509 35,900  Descending New York Center
Sat 03:38:17 AM 33.0969 -73.3297 347° North 447 514 36,000 50 Climbing New York Center
Sat 03:39:17 AM 33.2106 -73.3706 343° North 444 511 36,000  Level New York Center
Sat 03:40:17 AM 33.3453 -73.4097 346° North 459 528 36,000  Level New York Center
Sat 03:40:35 AM 33.2500 -73.4000 345° North 458 527 36,000 -97 Level New York Oceanic (ODAPS)
Sat 03:41:19 AM 33.4694 -73.4486 345° North 459 528 35,900  Descending New York Center
Sat 03:42:17 AM 33.5853 -73.4922 343° North 448 516 36,000 51 Climbing New York Center
Sat 03:43:17 AM 33.7222 -73.5144 352° North 469 540 36,000  Level New York Center
Sat 03:44:17 AM 33.8356 -73.5756 336° Northwest 441 507 36,000  Level New York Center
Sat 03:45:18 AM 33.9642 -73.6025 350° North 463 533 36,000  Level New York Center
Sat 03:46:17 AM 34.0842 -73.6469 343° North 458 527 36,000 -50 Level New York Center
Sat 03:47:17 AM 34.2039 -73.6889 344° North 452 520 35,900  Descending New York Center
Sat 03:48:17 AM 34.3281 -73.7311 344° North 452 520 36,000 50 Climbing New York Center
Sat 03:49:18 AM 34.4347 -73.8056 330° Northwest 452 520 36,000  Level New York Center
Sat 03:50:17 AM 34.5475 -73.8731 334° Northwest 452 520 36,000  Level New York Center
Sat 03:51:17 AM 34.6692 -73.9256 340° North 452 520 36,000  Level New York Center
Sat 03:52:17 AM 34.7886 -73.9861 337° Northwest 457 526 36,000  Level New York Center
Sat 03:53:19 AM 34.9014 -74.0489 335° Northwest 457 526 36,000 -31 Level New York Center
Sat 03:55:31 AM 35.1564 -74.1847 336° Northwest 456 525 35,900  Descending Washington Center
Sat 03:56:31 AM 35.2739 -74.2386 339° North 451 519 36,000 50 Climbing Washington Center
Sat 03:57:30 AM 35.3894 -74.3031 336° Northwest 451 519 36,000  Level Washington Center
Sat 04:03:12 AM 36.0651 -74.6582 337° Northwest 453 521 36,000  Level FlightAware ADS-B (KWWD)
Sat 04:05:15 AM 36.3007 -74.7819 337° Northwest 438 504 36,000  Level FlightAware ADS-B (KWWD)
Sat 04:06:09 AM 36.4035 -74.8361 337° Northwest 438 504 36,000  Level FlightAware ADS-B (KWWD)
Sat 04:06:58 AM 36.4954 -74.8845 337° Northwest 438 504 36,000  Level FlightAware ADS-B (KWWD)
Sat 04:07:40 AM 36.5751 -74.9266 337° Northwest 442 509 36,000  Level FlightAware ADS-B (KWWD)
Sat 04:08:22 AM 36.6540 -74.9685 337° Northwest 441 507 36,000  Level FlightAware ADS-B (KWWD)
Sat 04:08:54 AM 36.7134 -75.0002 337° Northwest 440 506 36,000  Level FlightAware ADS-B (KWWD)
Sat 04:09:33 AM 36.7867 -75.0393 337° Northwest 441 507 36,000  Level FlightAware ADS-B (KWWD)
Sat 04:10:03 AM 36.8430 -75.0692 337° Northwest 441 507 36,000  Level FlightAware ADS-B (KWWD)
Sat 04:10:34 AM 36.8998 -75.0995 337° Northwest 441 507 36,000  Level FlightAware ADS-B (KWWD)
Sat 04:11:13 AM 36.9741 -75.1394 337° Northwest 440 506 36,000  Level FlightAware ADS-B (KWWD)
Sat 04:11:43 AM 37.0301 -75.1694 337° Northwest 440 506 36,000  Level FlightAware ADS-B (KWWD)
Sat 04:12:13 AM 37.0860 -75.1992 337° Northwest 439 505 36,000  Level FlightAware ADS-B (KWWD)
Sat 04:12:44 AM 37.1443 -75.2308 337° Northwest 438 504 36,000  Level FlightAware ADS-B (KWWD)
Sat 04:13:15 AM 37.2008 -75.2612 337° Northwest 437 503 36,000  Level FlightAware ADS-B (KWWD)
Sat 04:13:45 AM 37.2570 -75.2916 337° Northwest 437 503 36,000  Level FlightAware ADS-B (KWWD)
Sat 04:14:25 AM 37.3307 -75.3316 337° Northwest 436 502 36,000  Level FlightAware ADS-B (KWWD)
Sat 04:14:55 AM 37.3866 -75.3618 337° Northwest 436 502 36,000  Level FlightAware ADS-B (KWWD)
Sat 04:15:34 AM 37.4582 -75.4006 337° Northwest 437 503 36,000  Level FlightAware ADS-B (KWWD)
Sat 04:16:05 AM 37.5162 -75.4321 337° Northwest 437 503 36,000  Level FlightAware ADS-B (KWWD)
Sat 04:16:45 AM 37.5899 -75.4723 337° Northwest 437 503 36,000  Level FlightAware ADS-B (KWWD)
Sat 04:17:15 AM 37.6463 -75.5032 336° Northwest 438 504 36,000  Level FlightAware ADS-B (KWWD)
Sat 04:17:54 AM 37.7189 -75.5429 337° Northwest 437 503 36,000  Level FlightAware ADS-B (KWWD)
Sat 04:18:25 AM 37.7760 -75.5743 336° Northwest 438 504 36,000  Level FlightAware ADS-B (KWWD)
Sat 04:19:04 AM 37.8481 -75.6137 337° Northwest 437 503 36,000  Level FlightAware ADS-B (KWWD)
Sat 04:19:16 AM 37.8697 -75.6256 337° Northwest 436 502 36,000  Level FlightAware ADS-B
Sat 04:19:48 AM 37.9236 -75.6554 336° Northwest 435 501 36,000  Level FlightAware ADS-B
Sat 04:20:16 AM 37.9809 -75.6870 337° Northwest 433 498 36,000  Level FlightAware ADS-B
Sat 04:20:49 AM 38.0401 -75.7198 337° Northwest 433 498 36,000  Level FlightAware ADS-B
Sat 04:21:18 AM 38.0934 -75.7492 337° Northwest 431 496 36,000  Level FlightAware ADS-B
Sat 04:21:48 AM 38.1439 -75.7773 336° Northwest 430 495 36,000  Level FlightAware ADS-B
Sat 04:22:05 AM 38.1808 -75.7977 336° Northwest 424 488 36,000  Level FlightAware ADS-B (KWWD)
Sat 04:22:35 AM 38.2350 -75.8277 336° Northwest 425 489 36,000  Level FlightAware ADS-B (KWWD)
Sat 04:23:06 AM 38.2919 -75.8593 336° Northwest 425 489 36,000  Level FlightAware ADS-B (KWWD)
Sat 04:23:11 AM 38.2999 -75.8639 337° Northwest 432 497 36,000  Level FlightAware ADS-B
Sat 04:23:45 AM 38.3642 -75.8999 336° Northwest 426 490 36,000  Level FlightAware ADS-B (KWWD)
Sat 04:23:53 AM 38.3778 -75.9075 337° Northwest 432 497 36,000  Level FlightAware ADS-B
Sat 04:24:26 AM 38.4392 -75.9418 336° Northwest 428 493 36,000  Level FlightAware ADS-B (KWWD)
Sat 04:24:50 AM 38.4710 -75.9597 336° Northwest 437 503 36,000  Level FlightAware ADS-B
Sat 04:25:26 AM 38.5498 -76.0038 336° Northwest 437 503 36,000  Level FlightAware ADS-B (KWWD)
Sat 04:26:05 AM 38.6228 -76.0447 336° Northwest 437 503 36,000  Level FlightAware ADS-B (KWWD)
Sat 04:26:36 AM 38.6793 -76.0766 336° Northwest 439 505 36,000  Level FlightAware ADS-B (KWWD)
Sat 04:27:15 AM 38.7525 -76.1179 336° Northwest 437 503 36,000  Level FlightAware ADS-B (KWWD)
Sat 04:27:46 AM 38.8090 -76.1498 336° Northwest 437 503 36,000  Level FlightAware ADS-B (KWWD)
Sat 04:28:16 AM 38.8652 -76.1818 336° Northwest 428 493 36,000  Level FlightAware ADS-B (KWWD)
Sat 04:28:56 AM 38.9373 -76.2227 336° Northwest 425 489 36,000  Level FlightAware ADS-B (KWWD)
Sat 04:29:26 AM 38.9930 -76.2544 336° Northwest 423 487 36,000  Level FlightAware ADS-B (KWWD)
Sat 04:29:56 AM 39.0464 -76.2848 336° Northwest 422 486 36,000  Level FlightAware ADS-B (KWWD)
Sat 04:30:26 AM 39.1008 -76.3159 336° Northwest 420 483 36,000  Level FlightAware ADS-B (KWWD)
Sat 04:31:01 AM 39.1619 -76.3508 336° Northwest 427 491 36,000  Level FlightAware ADS-B
Sat 04:31:36 AM 39.2278 -76.3886 336° Northwest 421 484 36,000  Level FlightAware ADS-B (KWWD)
Sat 04:32:06 AM 39.2826 -76.4198 336° Northwest 426 490 36,000  Level FlightAware ADS-B (KWWD)
Sat 04:32:17 AM 39.2985 -76.4289 336° Northwest 426 490 36,000  Level FlightAware ADS-B (KDAA)
Sat 04:32:36 AM 39.3365 -76.4510 336° Northwest 426 490 36,000  Level FlightAware ADS-B (KWWD)
Sat 04:33:07 AM 39.3922 -76.4830 336° Northwest 425 489 36,000  Level FlightAware ADS-B (KWWD)
Sat 04:33:37 AM 39.4447 -76.5133 336° Northwest 424 488 36,000  Level FlightAware ADS-B (KWWD)
Sat 04:33:52 AM 39.4718 -76.5291 336° Northwest 422 486 36,000  Level FlightAware ADS-B (KDAA)
Sat 04:34:07 AM 39.4990 -76.5447 336° Northwest 423 487 36,000  Level FlightAware ADS-B (KWWD)
Sat 04:34:37 AM 39.5513 -76.5751 336° Northwest 422 486 36,000  Level FlightAware ADS-B (KWWD)
Sat 04:35:07 AM 39.6048 -76.6060 336° Northwest 419 482 36,000  Level FlightAware ADS-B (KWWD)
Sat 04:35:31 AM 39.6472 -76.6307 336° Northwest 418 481 36,000  Level FlightAware ADS-B (KJYO)
Sat 04:35:46 AM 39.6742 -76.6464 335° Northwest 409 471 36,000  Level FlightAware ADS-B (KWWD)
Sat 04:36:00 AM 39.6978 -76.6600 336° Northwest 415 478 36,000  Level FlightAware ADS-B (KJYO)
Sat 04:36:17 AM 39.7275 -76.6774 335° Northwest 407 468 36,000  Level FlightAware ADS-B (KWWD)
Sat 04:36:32 AM 39.7538 -76.6927 336° Northwest 413 475 36,000  Level FlightAware ADS-B (KJYO)
Sat 04:36:50 AM 39.7839 -76.7104 336° Northwest 413 475 36,000  Level FlightAware ADS-B (LFML / MRS)
Sat 04:37:01 AM 39.8052 -76.7228 336° Northwest 411 473 36,000  Level FlightAware ADS-B (KJYO)
Sat 04:37:27 AM 39.8495 -76.7486 335° Northwest 404 465 36,000  Level FlightAware ADS-B (KWWD)
Sat 04:37:32 AM 39.8570 -76.7530 336° Northwest 411 473 36,000  Level FlightAware ADS-B (KJYO)
Sat 04:37:48 AM 39.8859 -76.7700 336° Northwest 411 473 36,000  Level FlightAware ADS-B (LFML / MRS)
Sat 04:38:03 AM 39.9115 -76.7849 336° Northwest 410 472 36,000  Level FlightAware ADS-B (KJYO)
Sat 04:38:27 AM 39.9534 -76.8094 336° Northwest 410 472 36,000  Level FlightAware ADS-B (KWWD)
Sat 04:38:31 AM 39.9594 -76.8130 336° Northwest 410 472 36,000  Level FlightAware ADS-B (KJYO)
Sat 04:38:57 AM 40.0055 -76.8401 336° Northwest 410 472 36,000  Level FlightAware ADS-B (KWWD)
Sat 04:39:03 AM 40.0149 -76.8456 336° Northwest 410 472 36,000  Level FlightAware ADS-B (KJYO)
Sat 04:39:16 AM 40.0252 -76.8517 336° Northwest 410 472 36,000  Level FlightAware ADS-B (KJYO)
Sat 04:39:37 AM 40.0742 -76.8806 336° Northwest 410 472 36,000  Level FlightAware ADS-B (KWWD)
Sat 04:40:17 AM 40.1445 -76.9220 335° Northwest 404 465 36,000  Level FlightAware ADS-B (KWWD)
Sat 04:40:36 AM 40.1506 -76.9256 336° Northwest 412 474 36,000  Level FlightAware ADS-B (LFML / MRS)
Sat 04:41:06 AM 40.2298 -76.9724 335° Northwest 405 466 36,000  Level FlightAware ADS-B (KWWD)
Sat 04:41:37 AM 40.2830 -77.0040 335° Northwest 406 467 36,000  Level FlightAware ADS-B (KWWD)
Sat 04:41:44 AM 40.2940 -77.0105 336° Northwest 413 475 36,000  Level FlightAware ADS-B (CYYZ)
Sat 04:42:07 AM 40.3360 -77.0355 335° Northwest 406 467 36,000  Level FlightAware ADS-B (KWWD)
Sat 04:42:19 AM 40.3539 -77.0461 336° Northwest 413 475 36,000  Level FlightAware ADS-B (CYYZ)
Sat 04:42:38 AM 40.3892 -77.0672 335° Northwest 406 467 36,000  Level FlightAware ADS-B (KWWD)
Sat 04:43:04 AM 40.4273 -77.0899 336° Northwest 413 475 36,000  Level FlightAware ADS-B (CYYZ)
Sat 04:43:17 AM 40.4576 -77.1079 335° Northwest 406 467 36,000  Level FlightAware ADS-B (KWWD)
Sat 04:43:33 AM 40.4854 -77.1245 336° Northwest 413 475 36,000  Level FlightAware ADS-B (CYYZ)
Sat 04:43:47 AM 40.5097 -77.1389 335° Northwest 406 467 36,000  Level FlightAware ADS-B (KWWD)
Sat 04:44:17 AM 40.5621 -77.1702 335° Northwest 407 468 36,000  Level FlightAware ADS-B (KWWD)
Sat 04:44:48 AM 40.6150 -77.2020 335° Northwest 407 468 36,000  Level FlightAware ADS-B (KWWD)
Sat 04:45:10 AM 40.6436 -77.2192 336° Northwest 414 476 36,000  Level FlightAware ADS-B (CYYZ)
Sat 04:45:27 AM 40.6839 -77.2434 335° Northwest 408 470 36,000  Level FlightAware ADS-B (KWWD)
Sat 04:45:49 AM 40.7209 -77.2656 336° Northwest 415 478 36,000  Level FlightAware ADS-B (CYYZ)
Sat 04:45:58 AM 40.7375 -77.2756 335° Northwest 408 470 36,000  Level FlightAware ADS-B (KWWD)
Sat 04:46:19 AM 40.7593 -77.2889 336° Northwest 415 478 36,000  Level FlightAware ADS-B (CYYZ)
Sat 04:46:36 AM 40.8037 -77.3157 335° Northwest 410 472 36,000  Level FlightAware ADS-B (KWWD)
Sat 04:46:50 AM 40.8281 -77.3305 336° Northwest 416 479 36,000  Level FlightAware ADS-B (CYYZ)
Sat 04:47:07 AM 40.8591 -77.3492 335° Northwest 410 472 36,000  Level FlightAware ADS-B (KWWD)
Sat 04:47:35 AM 40.9067 -77.3778 336° Northwest 417 480 36,000  Level FlightAware ADS-B (CYYZ)
Sat 04:47:38 AM 40.9132 -77.3817 335° Northwest 411 473 36,000  Level FlightAware ADS-B (KWWD)
Sat 04:48:08 AM 40.9647 -77.4131 335° Northwest 411 473 36,000  Level FlightAware ADS-B (KWWD)
Sat 04:48:20 AM 40.9860 -77.4259 336° Northwest 418 481 36,000  Level FlightAware ADS-B (CYYZ)
Sat 04:48:38 AM 41.0184 -77.4456 335° Northwest 412 474 36,000  Level FlightAware ADS-B (KWWD)
Sat 04:49:05 AM 41.0657 -77.4743 336° Northwest 419 482 36,000  Level FlightAware ADS-B (CYYZ)
Sat 04:49:16 AM 41.0858 -77.4866 335° Northwest 413 475 36,000  Level FlightAware ADS-B (KWWD)
Sat 04:49:35 AM 41.1172 -77.5058 336° Northwest 419 482 36,000  Level FlightAware ADS-B (CYYZ)
Sat 04:49:47 AM 41.1398 -77.5195 335° Northwest 411 473 36,000  Level FlightAware ADS-B (KWWD)
Sat 04:50:05 AM 41.1705 -77.5383 336° Northwest 417 480 36,000  Level FlightAware ADS-B (CYYZ)
Sat 04:50:20 AM 41.1980 -77.5551 335° Northwest 410 472 36,000  Level FlightAware ADS-B (KWWD)
Sat 04:50:50 AM 41.2509 -77.5875 336° Northwest 416 479 36,000  Level FlightAware ADS-B (CYYZ)
Sat 04:50:58 AM 41.2640 -77.5956 335° Northwest 409 471 36,000  Level FlightAware ADS-B (KWWD)
Sat 04:51:20 AM 41.2985 -77.6169 336° Northwest 415 478 36,000  Level FlightAware ADS-B (CYYZ)
Sat 04:51:37 AM 41.3327 -77.6378 335° Northwest 408 470 36,000  Level FlightAware ADS-B (KWWD)
Sat 04:51:39 AM 41.3340 -77.6380 336° Northwest 416 479 36,000  Level FlightAware ADS-B
Sat 04:51:51 AM 41.3561 -77.6521 336° Northwest 414 476 36,000  Level FlightAware ADS-B (CYYZ)
Sat 04:52:08 AM 41.3861 -77.6706 335° Northwest 407 468 36,000  Level FlightAware ADS-B (KWWD)
Sat 04:52:16 AM 41.4010 -77.6790 336° Northwest 415 478 36,000  Level FlightAware ADS-B
Sat 04:52:36 AM 41.4339 -77.6999 336° Northwest 413 475 36,000  Level FlightAware ADS-B (CYYZ)
Sat 04:52:46 AM 41.4530 -77.7120 335° Northwest 413 475 36,000  Level FlightAware ADS-B
Sat 04:52:47 AM 41.4548 -77.7129 335° Northwest 413 475 36,000  Level FlightAware ADS-B (KWWD)
Sat 04:53:05 AM 41.4391 -77.7031 336° Northwest 413 475 36,000  Level FlightAware ADS-B (CYYZ)
Sat 04:53:23 AM 41.5160 -77.7500 335° Northwest 413 475 36,000  Level FlightAware ADS-B
Sat 04:53:36 AM 41.5373 -77.7638 335° Northwest 411 473 36,000  Level FlightAware ADS-B (CYYZ)
Sat 04:53:52 AM 41.5660 -77.7820 335° Northwest 412 474 36,000  Level FlightAware ADS-B
Sat 04:53:57 AM 41.5750 -77.7873 335° Northwest 411 473 36,000  Level FlightAware ADS-B (KWWD)
Sat 04:54:05 AM 41.5880 -77.7952 336° Northwest 411 473 36,000  Level FlightAware ADS-B (CYYZ)
Sat 04:54:23 AM 41.6190 -77.8140 335° Northwest 412 474 36,000  Level FlightAware ADS-B
Sat 04:54:36 AM 41.6416 -77.8285 336° Northwest 410 472 36,000  Level FlightAware ADS-B (CYYZ)
Sat 04:54:58 AM 41.6800 -77.8530 335° Northwest 410 472 36,000  Level FlightAware ADS-B
Sat 04:55:05 AM 41.6897 -77.8583 336° Northwest 408 470 36,000  Level FlightAware ADS-B (CYYZ)
Sat 04:55:06 AM 41.6938 -77.8609 335° Northwest 408 470 36,000 -800 Level FlightAware ADS-B (KWWD)
Sat 04:55:35 AM 41.7420 -77.8910 335° Northwest 404 465 35,600 -800 Descending FlightAware ADS-B
Sat 04:55:36 AM 41.7433 -77.8917 335° Northwest 403 464 35,600 -2,000 Level FlightAware ADS-B (CYYZ)
Sat 04:55:47 AM 41.7635 -77.9044 335° Northwest 397 457 35,200 -2,483 Descending FlightAware ADS-B (KWWD)
Sat 04:56:05 AM 41.7930 -77.9230 336° Northwest 415 478 34,400 -1,636 Descending FlightAware ADS-B
Sat 04:56:20 AM 41.7929 -77.9227 336° Northwest 414 476 34,300 -2,667 Descending FlightAware ADS-B (CYYZ)
Sat 04:56:23 AM 41.8260 -77.9435 334° Northwest 416 479 33,600 -3,900 Descending FlightAware ADS-B (KWWD)
Sat 04:56:40 AM 41.8540 -77.9610 336° Northwest 429 494 33,000 -2,357 Descending FlightAware ADS-B
Sat 04:56:51 AM 41.8723 -77.9724 335° Northwest 431 496 32,500 -2,526 Descending FlightAware ADS-B (CYYZ)
Sat 04:56:59 AM 41.8897 -77.9833 335° Northwest 425 489 32,200 -1,263 Descending FlightAware ADS-B (KWWD)
Sat 04:57:10 AM 41.9100 -77.9960 336° Northwest 431 496 32,100 -522 Descending FlightAware ADS-B
Sat 04:57:22 AM 41.9291 -78.0079 335° Northwest 427 491 32,000 -167 Descending FlightAware ADS-B (CYYZ)
Sat 04:57:46 AM 41.9730 -78.0350 335° Northwest 424 488 32,000  Level FlightAware ADS-B
Sat 04:57:51 AM 41.9831 -78.0418 335° Northwest 422 486 32,000  Level FlightAware ADS-B (CYYZ)
Sat 04:58:16 AM 42.0270 -78.0700 335° Northwest 421 484 32,000  Level FlightAware ADS-B
Sat 04:58:22 AM 42.0370 -78.0758 335° Northwest 420 483 32,000  Level FlightAware ADS-B (CYYZ)
Sat 04:58:46 AM 42.0780 -78.1010 335° Northwest 420 483 32,000  Level FlightAware ADS-B
Sat 04:59:07 AM 42.1158 -78.1254 335° Northwest 420 483 32,000  Level FlightAware ADS-B (CYYZ)
Sat 04:59:22 AM 42.1430 -78.1430 335° Northwest 423 487 32,000  Level FlightAware ADS-B
Sat 04:59:29 AM 42.1525 -78.1486 335° Northwest 422 486 32,000 -724 Level FlightAware ADS-B (CYYZ)
Sat 05:04:45 AM 42.7166 -78.5087 335° Northwest 437 503 28,100 -780 Descending FlightAware ADS-B (EPLB / LUZ)
Sat 05:05:23 AM 42.7863 -78.5539 334° Northwest 431 496 27,400 -1,174 Descending FlightAware ADS-B (EPLB / LUZ)
Sat 05:05:31 AM 42.8011 -78.5634 335° Northwest 428 493 27,200 -2,267 Descending FlightAware ADS-B (CYYZ)
Sat 05:06:08 AM 42.8675 -78.6063 335° Northwest 422 486 25,700 -2,459 Descending FlightAware ADS-B (CYYZ)
Sat 05:06:32 AM 42.9084 -78.6344 335° Northwest 420 483 24,700 -2,348 Descending FlightAware ADS-B (EPLB / LUZ)
Sat 05:06:54 AM 42.9400 -78.6701 315° West 412 474 23,900 -2,316 Descending FlightAware ADS-B (CYYZ)
Sat 05:07:29 AM 42.9808 -78.7409 307° West 407 468 22,500 -2,533 Descending FlightAware ADS-B (EPLB / LUZ)
Sat 05:07:39 AM 42.9916 -78.7611 306° West 405 466 22,000 -2,462 Descending FlightAware ADS-B (CYYZ)
Sat 05:08:08 AM 43.0233 -78.8219 305° West 399 459 20,900 -2,400 Descending FlightAware ADS-B (EPLB / LUZ)
Sat 05:08:24 AM 43.0402 -78.8546 306° West 396 456 20,200 -2,341 Descending FlightAware ADS-B (CYYZ)
Sat 05:08:49 AM 43.0633 -78.8987 306° West 391 450 19,300 -2,267 Descending FlightAware ADS-B (EPLB / LUZ)
Sat 05:09:09 AM 43.0880 -78.9452 307° West 387 445 18,500 -2,654 Descending FlightAware ADS-B (CYYZ)
Sat 05:09:41 AM 43.1183 -79.0022 306° West 387 445 17,000 -2,667 Descending FlightAware ADS-B (EPLB / LUZ)
Sat 05:09:54 AM 43.1345 -79.0330 306° West 383 441 16,500 -2,276 Descending FlightAware ADS-B (CYYZ)
Sat 05:10:39 AM 43.1814 -79.1219 306° West 373 429 14,800 -2,206 Descending FlightAware ADS-B (CYYZ)
Sat 05:11:02 AM 43.2035 -79.1642 306° West 369 425 14,000 -2,250 Descending FlightAware ADS-B
Sat 05:11:11 AM 43.2122 -79.1808 305° West 366 421 13,600 -2,087 Descending FlightAware ADS-B
Sat 05:11:25 AM 43.2262 -79.2077 306° West 369 425 13,200 -1,467 Descending FlightAware ADS-B (CYYZ)
Sat 05:11:56 AM 43.2554 -79.2635 305° West 349 402 12,500 -1,067 Descending FlightAware ADS-B
Sat 05:12:10 AM 43.2687 -79.2894 306° West 335 386 12,400 -500 Descending FlightAware ADS-B (CYYZ)
Sat 05:12:32 AM 43.2794 -79.3098 306° West 317 365 12,200 -667 Descending FlightAware ADS-B
Sat 05:12:55 AM 43.3090 -79.3611 301° West 301 346 11,900 -933 Descending FlightAware ADS-B (CYYZ)
Sat 05:13:17 AM 43.3222 -79.3967 298° West 292 336 11,500 -1,467 Descending FlightAware ADS-B (EPLB / LUZ)
Sat 05:13:40 AM 43.3378 -79.4342 301° West 280 322 10,800 -2,382 Descending FlightAware ADS-B (CYYZ)
Sat 05:14:25 AM 43.3689 -79.5003 304° West 276 318 8,800 -2,667 Descending FlightAware ADS-B (CYYZ)
Sat 05:14:34 AM 43.3736 -79.5102 304° West 276 318 8,400 -2,571 Descending FlightAware ADS-B
Sat 05:14:39 AM 43.3791 -79.5214 305° West 276 318 8,200 -2,000 Descending FlightAware ADS-B (CYYZ)
Sat 05:14:52 AM 43.3835 -79.5304 304° West 276 318 7,800 -1,742 Descending FlightAware ADS-B (EPLB / LUZ)
Sat 05:15:10 AM 43.4013 -79.5657 306° West 271 312 7,300 -1,636 Descending FlightAware ADS-B (CYYZ)
Sat 05:15:25 AM 43.4110 -79.5846 306° West 270 311 6,900 -1,680 Descending FlightAware ADS-B (CYYZ)
Sat 05:15:35 AM 43.4176 -79.5977 305° West 270 311 6,600 -1,600 Descending FlightAware ADS-B
Sat 05:15:55 AM 43.4336 -79.6288 306° West 268 308 6,100 -1,200 Descending FlightAware ADS-B (CYYZ)
Sat 05:16:05 AM 43.4403 -79.6418 305° West 266 306 6,000 -1,000 Descending FlightAware ADS-B (EPLB / LUZ)
Sat 05:16:25 AM 43.4543 -79.6689 306° West 251 289 5,600 -1,543 Descending FlightAware ADS-B (EPLB / LUZ)
Sat 05:16:40 AM 43.4647 -79.6891 305° West 244 281 5,100 -2,100 Descending FlightAware ADS-B (CYYZ)
Sat 05:16:45 AM 43.4661 -79.6919 304° West 245 282 4,900 -2,625 Descending FlightAware ADS-B (EPLB / LUZ)
Sat 05:16:56 AM 43.4741 -79.7082 304° West 245 282 4,400 -2,500 Descending FlightAware ADS-B (CYYZ)
Sat 05:17:09 AM 43.4825 -79.7253 304° West 246 283 3,900 -1,400 Descending FlightAware ADS-B (EPLB / LUZ)
Sat 05:17:26 AM 43.4934 -79.7472 305° West 240 276 3,700 -600 Descending FlightAware ADS-B (CYYZ)
Sat 05:17:29 AM 43.4950 -79.7505 304° West 239 275 3,700 -857 Level FlightAware ADS-B (EPLB / LUZ)
Sat 05:17:40 AM 43.5024 -79.7654 305° West 232 267 3,500 -947 Descending FlightAware ADS-B (CYYZ)
Sat 05:17:48 AM 43.5067 -79.7741 304° West 230 265 3,400 -581 Descending FlightAware ADS-B (EPLB / LUZ)
Sat 05:18:11 AM 43.5204 -79.8014 306° West 218 251 3,200 -545 Descending FlightAware ADS-B (CYYZ)
Sat 05:18:21 AM 43.5269 -79.8108 320° Northwest 214 246 3,100 -800 Descending FlightAware ADS-B (CYYZ)
Sat 05:18:26 AM 43.5314 -79.8145 332° Northwest 213 245 3,000 -750 Descending FlightAware ADS-B (CYYZ)
Sat 05:18:37 AM 43.5415 -79.8175 North 214 246 2,900 -400 Descending FlightAware ADS-B (EPLB / LUZ)
Sat 05:18:56 AM 43.5590 -79.8102 24° Northeast 200 230 2,800 -250 Descending FlightAware ADS-B (CYYZ)
Sat 05:19:01 AM 43.5602 -79.8095 24° Northeast 196 226 2,800  Level FlightAware ADS-B (EPLB / LUZ)
Sat 05:19:16 AM 43.5754 -79.8003 24° Northeast 193 222 2,800  Level FlightAware ADS-B (CYYZ)
Sat 05:19:20 AM 43.5793 -79.7973 29° Northeast 193 222 2,800  Level FlightAware ADS-B (CYYZ)
Sat 05:19:32 AM 43.5875 -79.7888 41° Northeast 194 223 2,800 -571 Level FlightAware ADS-B (EPLB / LUZ)
Sat 05:19:41 AM 43.5931 -79.7809 46° Northeast 190 219 2,600 -1,059 Descending FlightAware ADS-B (CYYZ)
Sat 05:19:49 AM 43.5978 -79.7742 46° Northeast 188 216 2,500 -800 Descending FlightAware ADS-B (EPLB / LUZ)
Sat 05:19:56 AM 43.6019 -79.7685 45° Northeast 182 209 2,400 -1,000 Descending FlightAware ADS-B (CYYZ)
Sat 05:20:13 AM 43.5978 -79.7742 46° Northeast 171 197 2,100 -1,000 Descending FlightAware ADS-B (EPLB / LUZ)
Sat 05:20:26 AM 43.6184 -79.7450 46° Northeast 159 183 1,900 -889 Descending FlightAware ADS-B (CYYZ)
Sat 05:20:40 AM 43.6256 -79.7346 46° Northeast 158 182 1,700 -811 Descending FlightAware ADS-B (CYYZ)
Sat 05:21:03 AM 43.6242 -79.7365 46° Northeast 158 182 1,400 -774 Descending FlightAware ADS-B (EPLB / LUZ)
Sat 05:21:11 AM 43.6413 -79.7118 45° Northeast 157 181 1,300 -783 Descending FlightAware ADS-B (CYYZ)
Sat 05:21:26 AM 43.6487 -79.7012 46° Northeast 156 180 1,100 -750 Descending FlightAware ADS-B (CYYZ)
Sat 05:21:27 AM 43.6410 -79.7122 46° Northeast 158 182 1,100 -774 Level FlightAware ADS-B (EPLB / LUZ)
Sat 05:21:57 AM 43.6633 -79.6798 46° Northeast 148 170 700 -818 Descending FlightAware ADS-B (CYYZ)
Sat 05:22:11 AM 43.6701 -79.6700 46° Northeast 143 165 500 -857 Descending FlightAware ADS-B (CYYZ)

Login

Don't have an account? Register now (free) for customized features, flight alerts, and more!